Time;durP1;ratioP1;P1;durP2;ratioP2;P2;SDS_P1;SDS_P2;PMS_P1;PMS_P2;Temp;Humidity;BMP_temperature;BMP_pressure;BME280_temperature;BME280_humidity;BME280_pressure;Samples;Min_cycle;Max_cycle;Signal;HPM_P1;HPM_P2
2022/07/16 00:03:08;;;;;;;;;;;;;;;10.63;93.15;100148.63;6275551;22;19937;-85
2022/07/16 00:05:34;;;;;;;;;;;;;;;10.38;91.08;100156.59;6248841;22;19933;-86
2022/07/16 00:07:59;;;;;;;;;;;;;;;10.57;93.62;100151.50;6247978;22;20315;-87
2022/07/16 00:10:25;;;;;;;;;;;;;;;10.44;91.57;100152.88;6248548;22;20320;-87
2022/07/16 00:12:51;;;;;;;;;;;;;;;10.63;93.66;100151.25;6272872;22;19915;-86
2022/07/16 00:15:16;;;;;;;;;;;;;;;10.60;92.18;100147.88;6247704;22;20612;-86
2022/07/16 00:17:41;;;;;;;;;;;;;;;10.55;93.91;100161.28;6247705;22;19915;-86
2022/07/16 00:20:07;;;;;;;;;;;;;;;10.45;93.26;100151.94;6248894;22;19907;-86
2022/07/16 00:22:34;;;;;;;;;;;;;;;10.80;93.53;100147.09;6248376;22;20278;-85
2022/07/16 00:25:00;;;;;;;;;;;;;;;10.48;94.00;100157.13;6248820;22;19922;-87
2022/07/16 03:31:59;;;;;;;;;;;;;;;9.96;86.52;100158.03;6268743;22;19985;-93
2022/07/16 03:34:32;;;;;;;;;;;;;;;9.78;87.29;100163.94;6250686;22;19915;-94
2022/07/16 03:40:07;;;;;;;;;;;;;;;9.84;88.98;100168.16;6286156;22;19911;-96
2022/07/16 03:57:59;;;;;;;;;;;;;;;9.79;88.31;100166.53;6014494;22;19975;-96
2022/07/16 04:05:51;;;;;;;;;;;;;;;9.74;85.54;100159.69;6276959;22;19926;-89
2022/07/16 04:08:16;;;;;;;;;;;;;;;10.04;89.19;100151.63;6250010;22;19923;-93
2022/07/16 04:10:41;;;;;;;;;;;;;;;9.81;87.37;100161.19;6250424;22;19919;-91
2022/07/16 04:13:07;;;;;;;;;;;;;;;9.87;89.62;100165.41;6248398;22;19918;-92
2022/07/16 04:15:32;;;;;;;;;;;;;;;9.82;89.22;100162.94;6249518;22;20353;-91
2022/07/16 04:18:07;;;;;;;;;;;;;;;10.00;90.65;100174.66;6250283;22;19911;-91
2022/07/16 04:20:46;;;;;;;;;;;;;;;9.92;90.58;100177.56;6249459;22;19915;-90
2022/07/16 04:26:22;;;;;;;;;;;;;;;;;;;;;
2022/07/16 04:29:02;;;;;;;;;;;;;;;;;;;;;
2022/07/16 04:31:47;;;;;;;;;;;;;;;10.19;92.10;100172.25;6212235;23;20048;-91
2022/07/16 04:34:14;;;;;;;;;;;;;;;10.17;91.64;100166.16;6187346;23;19912;-91
2022/07/16 04:36:50;;;;;;;;;;;;;;;10.08;90.60;100164.66;6201173;22;19999;-92
2022/07/16 04:40:07;;;;;;;;;;;;;;;;;;;;;
2022/07/16 04:42:43;;;;;;;;;;;;;;;;;;;;;
2022/07/16 04:45:17;;;;;;;;;;;;;;;10.13;92.01;100175.97;6243083;22;20256;-93
2022/07/16 04:48:23;;;;;;;;;;;;;;;10.07;91.45;100168.25;6244361;23;19991;-91
2022/07/16 04:50:49;;;;;;;;;;;;;;;10.17;90.60;100179.38;6258083;22;19911;-94
2022/07/16 04:53:21;;;;;;;;;;;;;;;10.09;92.59;100184.94;6249116;23;20343;-93
2022/07/16 07:29:48;;;;;;;;;;;;;;;9.86;91.65;100235.13;6242737;22;19926;-80
2022/07/16 07:32:14;;;;;;;;;;;;;;;10.12;92.61;100231.63;6249209;22;19994;-80
2022/07/16 07:34:39;;;;;;;;;;;;;;;9.92;91.07;100225.22;6276135;22;20315;-80
2022/07/16 07:37:05;;;;;;;;;;;;;;;10.02;93.17;100228.44;6275930;22;19925;-80
2022/07/16 07:39:30;;;;;;;;;;;;;;;10.00;91.42;100228.50;6276297;22;19911;-80
2022/07/16 07:41:56;;;;;;;;;;;;;;;10.04;93.39;100228.41;6276298;22;19919;-80
2022/07/16 07:44:22;;;;;;;;;;;;;;;9.92;91.97;100230.50;6274286;22;19991;-80
2022/07/16 07:46:47;;;;;;;;;;;;;;;10.16;93.57;100233.25;6248997;22;19932;-80
2022/07/16 07:49:12;;;;;;;;;;;;;;;9.88;92.29;100226.25;6276046;22;19946;-79
2022/07/16 07:51:37;;;;;;;;;;;;;;;10.22;93.40;100225.09;6276315;22;19957;-80
2022/07/16 07:54:03;;;;;;;;;;;;;;;10.04;91.71;100225.75;6275712;22;19966;-80
2022/07/16 07:56:28;;;;;;;;;;;;;;;10.10;92.61;100228.16;6248879;22;19915;-80
2022/07/16 07:58:53;;;;;;;;;;;;;;;10.09;92.41;100226.44;6274705;22;19911;-80
2022/07/16 08:01:18;;;;;;;;;;;;;;;9.87;92.19;100232.44;6275919;22;19915;-80
2022/07/16 08:03:44;;;;;;;;;;;;;;;10.16;92.65;100233.25;6275934;22;19911;-80
2022/07/16 08:06:09;;;;;;;;;;;;;;;10.11;89.86;100229.91;6248227;22;19915;-80
2022/07/16 08:08:34;;;;;;;;;;;;;;;10.24;91.63;100223.25;6276207;22;20375;-80
2022/07/16 08:10:59;;;;;;;;;;;;;;;10.05;89.35;100230.09;6275692;22;19916;-80
2022/07/16 08:13:25;;;;;;;;;;;;;;;10.34;92.79;100227.38;6274276;22;19915;-80
2022/07/16 08:15:50;;;;;;;;;;;;;;;10.09;91.10;100231.75;6275710;22;19954;-80
2022/07/16 08:18:15;;;;;;;;;;;;;;;10.20;92.98;100226.94;6275740;22;19911;-80
2022/07/16 08:20:40;;;;;;;;;;;;;;;9.98;91.43;100227.66;6276182;22;20279;-80
2022/07/16 08:23:06;;;;;;;;;;;;;;;10.28;93.28;100234.63;6275906;22;19927;-80
2022/07/16 08:25:47;;;;;;;;;;;;;;;10.20;93.14;100219.00;6275968;22;19912;-80
2022/07/16 08:28:15;;;;;;;;;;;;;;;10.11;95.07;100224.59;6274152;22;20392;-80
2022/07/16 08:30:40;;;;;;;;;;;;;;;10.06;95.71;100221.25;6248637;22;19961;-80
2022/07/16 08:33:05;;;;;;;;;;;;;;;10.09;95.16;100221.16;6275600;22;19915;-80
2022/07/16 08:35:31;;;;;;;;;;;;;;;10.15;95.95;100223.59;6275593;22;20017;-80
2022/07/16 08:37:56;;;;;;;;;;;;;;;10.26;94.63;100218.78;6275402;22;20266;-83
2022/07/16 08:40:22;;;;;;;;;;;;;;;10.12;95.79;100221.06;6275597;22;19916;-80
2022/07/16 08:42:48;;;;;;;;;;;;;;;10.36;94.17;100214.91;6275402;22;19918;-80
2022/07/16 08:45:14;;;;;;;;;;;;;;;10.41;94.89;100216.56;6273687;22;19907;-80
2022/07/16 08:47:39;;;;;;;;;;;;;;;10.25;93.02;100221.50;6275530;22;19923;-80
2022/07/16 08:50:08;;;;;;;;;;;;;;;10.50;95.02;100216.25;6275457;22;19915;-80
2022/07/16 08:52:36;;;;;;;;;;;;;;;10.40;92.79;100222.75;6275711;22;19908;-80
2022/07/16 08:55:02;;;;;;;;;;;;;;;10.58;94.64;100221.22;6275301;22;20018;-80
2022/07/16 08:57:27;;;;;;;;;;;;;;;10.29;93.75;100223.97;6275471;22;20334;-80
2022/07/16 08:59:53;;;;;;;;;;;;;;;10.35;95.35;100222.91;6273850;22;19934;-80
2022/07/16 09:02:19;;;;;;;;;;;;;;;10.16;94.87;100226.19;6275616;22;20238;-80
2022/07/16 09:04:44;;;;;;;;;;;;;;;10.34;96.28;100226.50;6275870;22;19943;-80
2022/07/16 09:07:13;;;;;;;;;;;;;;;10.23;96.37;100218.91;6275367;22;19911;-80
2022/07/16 09:09:39;;;;;;;;;;;;;;;10.32;95.62;100215.03;6275815;22;19912;-80
2022/07/16 09:12:04;;;;;;;;;;;;;;;10.24;94.97;100210.00;6275451;22;20254;-80
2022/07/16 09:14:29;;;;;;;;;;;;;;;10.31;93.15;100218.63;6246797;22;20357;-80
2022/07/16 09:16:55;;;;;;;;;;;;;;;10.52;94.74;100219.69;6275586;22;19998;-80
2022/07/16 09:19:21;;;;;;;;;;;;;;;10.51;92.62;100217.94;6277258;22;19964;-80
2022/07/16 09:22:00;;;;;;;;;;;;;;;10.38;94.33;100212.22;6250385;22;19946;-80
2022/07/16 09:24:32;;;;;;;;;;;;;;;10.32;93.40;100213.31;6277476;22;19912;-80
2022/07/16 09:27:05;;;;;;;;;;;;;;;10.47;94.91;100221.63;6277755;22;19964;-80
2022/07/16 09:29:32;;;;;;;;;;;;;;;10.48;93.59;100215.41;6275708;22;19923;-80
2022/07/16 09:31:58;;;;;;;;;;;;;;;10.50;92.76;100216.25;6277258;22;19912;-80
2022/07/16 09:34:23;;;;;;;;;;;;;;;10.42;92.20;100212.97;6277324;22;20366;-80
2022/07/16 09:37:02;;;;;;;;;;;;;;;10.45;92.77;100213.75;6277225;22;20238;-80
2022/07/16 09:39:30;;;;;;;;;;;;;;;10.35;93.07;100215.84;6277297;22;19961;-80
2022/07/16 09:41:56;;;;;;;;;;;;;;;10.43;90.95;100214.72;6277299;22;19915;-80
2022/07/16 09:44:25;;;;;;;;;;;;;;;10.68;94.69;100210.25;6248576;22;19911;-80
2022/07/16 09:46:57;;;;;;;;;;;;;;;10.29;93.53;100216.03;6250554;22;19915;-80
2022/07/16 09:49:22;;;;;;;;;;;;;;;10.91;96.74;100213.84;6250171;22;19915;-80
2022/07/16 09:51:48;;;;;;;;;;;;;;;10.41;94.38;100216.56;6277525;22;19934;-80
2022/07/16 09:54:26;;;;;;;;;;;;;;;10.43;96.74;100214.72;6277059;22;19916;-80
2022/07/16 09:57:03;;;;;;;;;;;;;;;10.52;95.71;100214.38;6250353;22;20327;-79
2022/07/16 09:59:30;;;;;;;;;;;;;;;10.65;97.03;100214.81;6275533;22;19911;-80
2022/07/16 10:01:55;;;;;;;;;;;;;;;10.49;95.49;100219.78;6277097;22;20522;-80
2022/07/16 10:04:23;;;;;;;;;;;;;;;10.78;97.48;100215.22;6276883;22;19915;-80
2022/07/16 10:06:48;;;;;;;;;;;;;;;10.54;96.78;100224.00;6277366;22;19911;-80
2022/07/16 10:09:14;;;;;;;;;;;;;;;10.78;97.78;100216.06;6277012;22;19957;-80
2022/07/16 10:11:41;;;;;;;;;;;;;;;10.44;97.50;100217.31;6276720;22;19911;-80
2022/07/16 10:14:07;;;;;;;;;;;;;;;10.66;96.48;100219.19;6275303;22;19970;-80
2022/07/16 10:16:40;;;;;;;;;;;;;;;10.34;96.00;100216.78;6276805;22;19915;-80
2022/07/16 10:19:06;;;;;;;;;;;;;;;10.60;94.42;100214.97;6249616;22;19969;-80
2022/07/16 10:21:31;;;;;;;;;;;;;;;10.53;95.45;100213.47;6276960;22;19911;-80
2022/07/16 10:24:04;;;;;;;;;;;;;;;10.46;94.01;100210.16;6276934;22;20238;-82
2022/07/16 10:26:30;;;;;;;;;;;;;;;10.55;95.94;100214.28;6276729;22;19912;-82
2022/07/16 10:28:55;;;;;;;;;;;;;;;10.29;94.60;100218.69;6274694;22;20224;-82
2022/07/16 10:31:37;;;;;;;;;;;;;;;10.77;95.83;100224.09;6276345;22;19919;-82
2022/07/16 10:34:15;;;;;;;;;;;;;;;10.51;92.40;100216.19;6276787;22;19933;-82
2022/07/16 10:36:47;;;;;;;;;;;;;;;10.82;92.17;100217.72;6276561;22;19911;-81
2022/07/16 10:39:16;;;;;;;;;;;;;;;10.52;92.36;100225.00;6276674;22;19965;-82
2022/07/16 10:41:51;;;;;;;;;;;;;;;10.69;90.56;100227.00;6249785;22;19912;-82
2022/07/16 10:44:18;;;;;;;;;;;;;;;10.65;92.67;100220.97;6275098;22;19943;-81
2022/07/16 10:46:57;;;;;;;;;;;;;;;10.58;90.84;100222.13;6276684;22;20003;-82
2022/07/16 10:49:23;;;;;;;;;;;;;;;10.52;93.82;100219.69;6276316;22;20407;-82
2022/07/16 10:52:01;;;;;;;;;;;;;;;10.45;92.47;100216.41;6277039;22;19911;-82
2022/07/16 10:54:30;;;;;;;;;;;;;;;10.94;94.26;100218.16;6249372;22;19922;-81
2022/07/16 10:56:56;;;;;;;;;;;;;;;10.66;93.69;100220.06;6276454;22;20013;-82
2022/07/16 10:59:29;;;;;;;;;;;;;;;10.67;93.59;100215.59;6274961;22;19942;-81
2022/07/16 11:01:56;;;;;;;;;;;;;;;10.65;93.74;100217.47;6276684;22;19960;-82
2022/07/16 11:04:29;;;;;;;;;;;;;;;10.84;90.80;100217.66;6276434;22;19922;-82
2022/07/16 11:06:55;;;;;;;;;;;;;;;10.66;93.17;100216.56;6276442;22;19976;-81
2022/07/16 11:09:25;;;;;;;;;;;;;;;10.22;92.00;100225.09;6223906;22;20390;-82
2022/07/16 11:11:51;;;;;;;;;;;;;;;10.61;94.62;100215.81;6276495;22;20372;-82
2022/07/16 11:14:16;;;;;;;;;;;;;;;10.42;92.96;100213.84;6247540;22;19919;-82
2022/07/16 11:16:48;;;;;;;;;;;;;;;10.48;93.26;100218.06;6276293;22;20002;-82
2022/07/16 11:19:15;;;;;;;;;;;;;;;10.24;93.19;100219.75;6276287;22;19937;-81
2022/07/16 11:21:50;;;;;;;;;;;;;;;10.36;93.02;100206.97;6276332;22;20235;-81
2022/07/16 11:24:15;;;;;;;;;;;;;;;10.43;94.78;100218.22;6276130;22;20064;-81
2022/07/16 11:26:41;;;;;;;;;;;;;;;10.65;92.63;100218.31;6276334;22;20327;-82
2022/07/16 11:29:06;;;;;;;;;;;;;;;10.56;93.72;100205.38;6274447;22;19915;-81
2022/07/16 11:31:32;;;;;;;;;;;;;;;10.50;91.70;100216.25;6276073;22;19919;-82
2022/07/16 11:34:03;;;;;;;;;;;;;;;10.55;92.83;100219.59;6276476;22;19933;-82
2022/07/16 11:36:30;;;;;;;;;;;;;;;10.35;92.77;100223.81;6275917;22;19917;-82
2022/07/16 11:38:56;;;;;;;;;;;;;;;10.43;92.62;100220.00;6276104;22;19927;-82
2022/07/16 11:41:21;;;;;;;;;;;;;;;10.55;93.70;100214.28;6275804;22;19965;-82
2022/07/16 11:43:47;;;;;;;;;;;;;;;10.81;92.19;100212.47;6247628;22;19911;-81
2022/07/16 11:46:23;;;;;;;;;;;;;;;10.81;94.26;100210.66;6249004;22;19915;-81
2022/07/16 11:48:48;;;;;;;;;;;;;;;10.52;92.47;100209.09;6276096;22;19915;-82
2022/07/16 11:51:14;;;;;;;;;;;;;;;10.57;94.94;100209.78;6276029;22;19998;-82
2022/07/16 11:53:39;;;;;;;;;;;;;;;10.45;93.17;100212.84;6276175;22;20326;-81
2022/07/16 11:56:05;;;;;;;;;;;;;;;10.56;94.42;100210.69;6248428;22;19911;-81
2022/07/16 11:58:30;;;;;;;;;;;;;;;10.50;91.46;100218.88;6274394;22;19990;-82
2022/07/16 12:00:56;;;;;;;;;;;;;;;10.49;91.36;100209.19;6275968;22;19941;-82
2022/07/16 12:03:21;;;;;;;;;;;;;;;10.63;90.90;100214.88;6275902;22;19916;-82
2022/07/16 12:05:46;;;;;;;;;;;;;;;10.53;90.62;100211.69;6275924;22;19918;-81
2022/07/16 12:08:12;;;;;;;;;;;;;;;10.77;91.18;100210.84;6276235;22;19950;-81
2022/07/16 12:10:38;;;;;;;;;;;;;;;10.58;90.24;100222.13;6275581;22;19998;-81
2022/07/16 12:13:04;;;;;;;;;;;;;;;10.51;92.47;100215.28;6247556;22;19907;-82
2022/07/16 12:15:29;;;;;;;;;;;;;;;10.63;91.12;100209.56;6248900;22;20371;-83
2022/07/16 12:17:55;;;;;;;;;;;;;;;10.61;92.73;100216.72;6248566;22;19937;-81
2022/07/16 12:20:27;;;;;;;;;;;;;;;10.44;89.82;100208.50;6275657;22;19912;-81
2022/07/16 12:23:02;;;;;;;;;;;;;;;10.64;92.39;100218.38;6249048;22;19918;-81
2022/07/16 12:25:28;;;;;;;;;;;;;;;10.45;90.48;100213.75;6248471;22;19956;-81
2022/07/16 12:28:01;;;;;;;;;;;;;;;10.58;92.44;100216.81;6276051;22;20319;-82
2022/07/16 12:30:35;;;;;;;;;;;;;;;10.57;92.01;100209.78;6275505;22;19930;-81
2022/07/16 12:33:01;;;;;;;;;;;;;;;10.51;91.02;100207.34;6275998;22;19919;-81
2022/07/16 12:35:37;;;;;;;;;;;;;;;10.62;90.97;100210.47;6275450;22;19954;-81
2022/07/16 12:38:03;;;;;;;;;;;;;;;10.59;88.00;100207.94;6248807;22;19957;-81
2022/07/16 12:40:28;;;;;;;;;;;;;;;10.51;90.46;100212.66;6275592;22;20278;-81
2022/07/16 12:42:54;;;;;;;;;;;;;;;10.48;88.57;100210.09;6275450;22;19918;-81
2022/07/16 12:45:19;;;;;;;;;;;;;;;10.83;90.01;100215.91;6274780;22;19922;-82
2022/07/16 12:47:44;;;;;;;;;;;;;;;10.35;89.08;100215.84;6275663;22;19919;-81
2022/07/16 12:50:10;;;;;;;;;;;;;;;10.37;91.27;100210.50;6248371;22;20045;-82
2022/07/16 12:52:35;;;;;;;;;;;;;;;10.49;90.76;100206.53;6275246;22;19919;-81
2022/07/16 13:00:28;;;;;;;;;;;;;;;10.49;89.98;100203.91;6275437;22;20410;-82
2022/07/16 13:02:54;;;;;;;;;;;;;;;10.67;91.95;100210.31;6275779;22;19915;-82
2022/07/16 13:05:19;;;;;;;;;;;;;;;10.47;90.73;100206.59;6275454;22;20409;-82
2022/07/16 13:07:44;;;;;;;;;;;;;;;10.61;92.79;100208.75;6248861;22;19911;-81
2022/07/16 13:10:09;;;;;;;;;;;;;;;10.27;91.02;100201.09;6275551;22;19957;-82
2022/07/16 13:12:38;;;;;;;;;;;;;;;10.92;92.80;100199.66;6248702;22;19922;-82
2022/07/16 13:15:03;;;;;;;;;;;;;;;10.31;91.93;100206.25;6273586;22;19946;-82
2022/07/16 13:17:29;;;;;;;;;;;;;;;10.50;92.92;100208.28;6275239;22;20327;-82
2022/07/16 13:19:54;;;;;;;;;;;;;;;10.61;93.33;100207.88;6275818;22;20311;-81
2022/07/16 13:22:19;;;;;;;;;;;;;;;10.56;91.85;100205.38;6275691;22;19915;-81
2022/07/16 13:24:44;;;;;;;;;;;;;;;10.59;94.27;100204.44;6248169;22;20343;-82
2022/07/16 13:27:10;;;;;;;;;;;;;;;10.52;93.36;100214.38;6275493;22;19990;-82
2022/07/16 13:29:35;;;;;;;;;;;;;;;10.57;95.72;100208.94;6272449;22;19915;-81
2022/07/16 13:32:01;;;;;;;;;;;;;;;10.63;93.96;100201.63;6246973;22;19915;-81
2022/07/16 13:34:26;;;;;;;;;;;;;;;10.59;94.97;100204.44;6275358;22;19922;-82
2022/07/16 13:36:51;;;;;;;;;;;;;;;10.58;91.78;100202.69;6275276;22;19915;-82
2022/07/16 13:39:17;;;;;;;;;;;;;;;10.69;93.58;100201.41;6248697;22;19911;-81
2022/07/16 13:41:42;;;;;;;;;;;;;;;10.54;92.41;100202.78;6248458;22;20331;-81
2022/07/16 13:44:07;;;;;;;;;;;;;;;10.84;92.81;100199.94;6274050;22;20327;-82
2022/07/16 13:46:33;;;;;;;;;;;;;;;10.90;91.88;100189.13;6275110;22;19911;-81
2022/07/16 13:48:58;;;;;;;;;;;;;;;10.56;92.34;100197.44;6275334;22;20014;-82
2022/07/16 13:51:23;;;;;;;;;;;;;;;10.91;91.58;100197.94;6248597;22;19915;-81
2022/07/16 13:53:49;;;;;;;;;;;;;;;10.80;90.99;100192.16;6275213;22;19911;-81
2022/07/16 13:56:14;;;;;;;;;;;;;;;10.70;91.84;100189.00;6248080;22;20279;-84
2022/07/16 13:58:39;;;;;;;;;;;;;;;10.67;89.60;100191.75;6273511;22;20286;-82
2022/07/16 14:01:05;;;;;;;;;;;;;;;10.97;91.43;100194.19;6275184;22;19954;-81
2022/07/16 14:03:31;;;;;;;;;;;;;;;10.47;90.63;100187.19;6275093;22;20331;-80
2022/07/16 14:05:58;;;;;;;;;;;;;;;10.89;93.14;100194.47;6276876;22;19911;-81
2022/07/16 14:08:23;;;;;;;;;;;;;;;10.51;91.50;100191.44;6277077;22;20048;-81
2022/07/16 14:10:49;;;;;;;;;;;;;;;10.79;93.14;100196.63;6277068;22;19943;-82
2022/07/16 14:13:14;;;;;;;;;;;;;;;10.66;91.69;100184.75;6275471;22;20737;-82
2022/07/16 14:15:39;;;;;;;;;;;;;;;10.70;93.15;100184.56;6276602;22;20358;-82
2022/07/16 14:18:06;;;;;;;;;;;;;;;10.49;93.61;100188.84;6250192;22;19926;-82
2022/07/16 14:20:32;;;;;;;;;;;;;;;10.68;93.67;100181.09;6276920;22;19911;-81
2022/07/16 14:22:57;;;;;;;;;;;;;;;10.71;93.44;100177.47;6249798;22;20318;-82
2022/07/16 14:25:22;;;;;;;;;;;;;;;10.91;93.22;100174.06;6275913;22;20208;-82
2022/07/16 14:27:48;;;;;;;;;;;;;;;10.84;93.52;100172.59;6276272;22;19915;-82
2022/07/16 14:30:14;;;;;;;;;;;;;;;10.86;92.53;100178.69;6274733;22;20036;-81
2022/07/16 14:32:39;;;;;;;;;;;;;;;10.80;93.73;100177.16;6275213;22;20184;-81
2022/07/16 14:35:08;;;;;;;;;;;;;;;10.76;90.94;100172.03;6276263;22;19919;-82
2022/07/16 14:37:34;;;;;;;;;;;;;;;10.86;93.47;100174.25;6276640;22;19911;-82
2022/07/16 14:40:00;;;;;;;;;;;;;;;10.76;91.89;100172.88;6276698;22;19986;-82
2022/07/16 14:42:25;;;;;;;;;;;;;;;10.81;93.38;100162.09;6276678;22;19985;-82
2022/07/16 14:44:50;;;;;;;;;;;;;;;10.71;92.13;100162.44;6274986;22;19911;-82
2022/07/16 14:47:16;;;;;;;;;;;;;;;10.91;93.53;100166.13;6276589;22;20009;-82
2022/07/16 14:49:41;;;;;;;;;;;;;;;10.64;93.18;100162.72;6276770;22;19919;-82
2022/07/16 14:52:06;;;;;;;;;;;;;;;10.75;93.91;100172.94;6249372;22;19934;-82
2022/07/16 14:54:31;;;;;;;;;;;;;;;10.75;93.96;100164.97;6249315;22;19911;-82
2022/07/16 14:56:57;;;;;;;;;;;;;;;10.80;91.04;100169.19;6276110;22;20282;-81
2022/07/16 14:59:22;;;;;;;;;;;;;;;10.84;90.92;100162.84;6275068;22;19980;-82
2022/07/16 15:01:48;;;;;;;;;;;;;;;10.69;90.19;100161.63;6249078;22;20239;-82
2022/07/16 15:04:14;;;;;;;;;;;;;;;10.78;91.88;100163.06;6276780;22;19918;-82
2022/07/16 15:06:39;;;;;;;;;;;;;;;10.63;91.08;100174.25;6276230;22;19912;-82
2022/07/16 15:09:04;;;;;;;;;;;;;;;10.75;92.64;100162.31;6276509;22;19947;-82
2022/07/16 15:11:29;;;;;;;;;;;;;;;10.67;90.91;100168.78;6276050;22;19990;-82
2022/07/16 15:13:55;;;;;;;;;;;;;;;10.71;92.61;100166.88;6274828;22;19941;-82
2022/07/16 15:16:20;;;;;;;;;;;;;;;10.64;92.05;100155.66;6275743;22;19916;-82
2022/07/16 15:18:45;;;;;;;;;;;;;;;10.79;92.25;100159.50;6275903;22;20414;-82
2022/07/16 15:21:11;;;;;;;;;;;;;;;10.63;92.91;100156.56;6275240;22;20239;-82
2022/07/16 15:23:36;;;;;;;;;;;;;;;10.72;91.56;100155.34;6275713;22;19915;-81
2022/07/16 15:26:01;;;;;;;;;;;;;;;10.75;93.36;100157.88;6276219;22;19923;-81
2022/07/16 15:28:26;;;;;;;;;;;;;;;10.80;90.37;100152.41;6273528;22;20303;-81
2022/07/16 15:30:52;;;;;;;;;;;;;;;10.96;91.81;100161.53;6274438;22;20284;-81
2022/07/16 15:36:01;;;;;;;;;;;;;;;10.76;90.74;100158.75;6275575;22;20239;-81
2022/07/16 15:38:27;;;;;;;;;;;;;;;10.53;91.78;100163.13;6276119;22;19915;-81
2022/07/16 15:40:52;;;;;;;;;;;;;;;10.72;90.77;100164.19;6275969;22;19907;-82
2022/07/16 15:43:18;;;;;;;;;;;;;;;10.80;91.74;100153.28;6274157;22;19954;-82
2022/07/16 15:45:43;;;;;;;;;;;;;;;10.82;89.81;100147.94;6275839;22;20250;-82
2022/07/16 15:48:09;;;;;;;;;;;;;;;10.82;90.73;100158.53;6274288;22;19916;-82
2022/07/16 15:50:34;;;;;;;;;;;;;;;10.71;88.59;100156.28;6275336;22;19911;-82
2022/07/16 15:52:59;;;;;;;;;;;;;;;10.75;91.59;100164.97;6248438;22;19914;-81
2022/07/16 15:55:25;;;;;;;;;;;;;;;10.61;89.27;100163.72;6248562;22;19939;-81
2022/07/16 15:57:50;;;;;;;;;;;;;;;11.02;89.33;100166.56;6275860;22;19915;-81
2022/07/16 16:00:15;;;;;;;;;;;;;;;10.68;89.31;100161.69;6274470;22;19922;-81
2022/07/16 16:02:40;;;;;;;;;;;;;;;10.72;89.79;100152.69;6275863;22;20349;-81
2022/07/16 16:05:08;;;;;;;;;;;;;;;10.70;90.15;100160.69;6275977;22;20286;-81
2022/07/16 16:07:34;;;;;;;;;;;;;;;10.86;89.54;100160.13;6249128;22;20239;-81
2022/07/16 16:09:59;;;;;;;;;;;;;;;10.84;90.68;100161.97;6275851;22;19922;-81
2022/07/16 16:12:25;;;;;;;;;;;;;;;10.78;88.12;100154.25;6276163;22;20324;-81
2022/07/16 16:14:50;;;;;;;;;;;;;;;10.74;91.04;100153.53;6274170;22;19911;-81
2022/07/16 16:17:15;;;;;;;;;;;;;;;10.68;87.36;100151.94;6275682;22;19926;-81
2022/07/16 16:19:40;;;;;;;;;;;;;;;10.78;89.90;100159.56;6275726;22;19938;-81
2022/07/16 16:22:08;;;;;;;;;;;;;;;10.63;88.06;100158.34;6275746;22;19916;-81
2022/07/16 16:24:34;;;;;;;;;;;;;;;10.51;88.90;100160.53;6249032;22;20069;-81
2022/07/16 16:26:59;;;;;;;;;;;;;;;10.59;88.51;100151.44;6248198;22;20346;-81
2022/07/16 16:29:24;;;;;;;;;;;;;;;10.43;88.13;100162.59;6273988;22;19915;-82
2022/07/16 16:31:49;;;;;;;;;;;;;;;10.43;89.28;100161.72;6248542;22;19950;-81
2022/07/16 16:34:16;;;;;;;;;;;;;;;10.61;86.01;100161.06;6275583;22;19919;-81
2022/07/16 16:36:41;;;;;;;;;;;;;;;10.65;87.97;100164.47;6275045;22;19987;-81
2022/07/16 16:39:08;;;;;;;;;;;;;;;10.50;84.26;100152.66;6274623;22;19915;-81
2022/07/16 16:41:33;;;;;;;;;;;;;;;10.77;87.67;100152.53;6274943;22;19919;-83
2022/07/16 16:43:58;;;;;;;;;;;;;;;11.07;84.03;100167.28;6246616;22;20378;-82
2022/07/16 16:46:44;;;;;;;;;;;;;;;10.86;84.59;100170.72;5098383;27;19917;-85
2022/07/16 16:49:09;;;;;;;;;;;;;;;10.94;82.26;100167.78;5086201;28;19924;-85
2022/07/16 16:51:34;;;;;;;;;;;;;;;10.63;81.30;100159.22;5086991;28;19925;-82
2022/07/16 16:54:00;;;;;;;;;;;;;;;10.79;81.64;100167.47;5082696;28;20337;-84
2022/07/16 16:56:25;;;;;;;;;;;;;;;10.67;79.87;100171.44;5116113;28;19928;-83
2022/07/16 16:58:51;;;;;;;;;;;;;;;10.68;80.96;100173.16;5079419;28;19940;-84
2022/07/16 17:01:16;;;;;;;;;;;;;;;10.56;79.04;100176.25;5118162;28;19931;-85
2022/07/16 17:03:41;;;;;;;;;;;;;;;10.62;81.74;100178.66;5087649;28;19923;-85
2022/07/16 17:06:07;;;;;;;;;;;;;;;10.47;79.95;100173.97;5085805;28;19966;-84
2022/07/16 17:08:32;;;;;;;;;;;;;;;10.60;81.66;100179.66;5083989;28;19924;-86
2022/07/16 17:10:57;;;;;;;;;;;;;;;10.52;78.50;100172.00;5086526;28;19965;-83
2022/07/16 17:13:23;;;;;;;;;;;;;;;10.72;81.37;100173.88;5077901;28;20647;-82
2022/07/16 17:15:48;;;;;;;;;;;;;;;10.50;79.59;100182.66;5085275;28;19920;-85
2022/07/16 17:18:14;;;;;;;;;;;;;;;10.60;82.19;100180.53;5111283;28;19948;-85
2022/07/16 17:20:39;;;;;;;;;;;;;;;10.42;79.49;100191.78;5087668;28;19999;-85
2022/07/16 17:23:05;;;;;;;;;;;;;;;10.59;82.59;100184.09;5079916;28;19921;-85
2022/07/16 17:25:30;;;;;;;;;;;;;;;10.47;80.17;100189.84;5121490;28;20451;-84
2022/07/16 17:27:55;;;;;;;;;;;;;;;10.57;83.43;100196.53;5115340;28;19916;-88
2022/07/16 17:30:20;;;;;;;;;;;;;;;10.31;80.41;100194.81;5111940;28;19925;-85
2022/07/16 17:32:46;;;;;;;;;;;;;;;10.44;84.04;100190.81;5083046;28;19913;-85
2022/07/16 17:35:11;;;;;;;;;;;;;;;10.41;82.01;100195.38;5083175;28;19924;-85
2022/07/16 17:37:37;;;;;;;;;;;;;;;10.51;84.91;100197.63;5083103;28;20287;-83
2022/07/16 17:40:02;;;;;;;;;;;;;;;10.24;83.24;100193.28;5083536;28;19920;-85
2022/07/16 17:42:27;;;;;;;;;;;;;;;10.51;84.13;100195.00;5077378;28;19924;-84
2022/07/16 17:44:53;;;;;;;;;;;;;;;10.32;83.44;100192.13;5081156;28;19921;-84
2022/07/16 17:47:18;;;;;;;;;;;;;;;10.48;83.84;100197.75;5088107;28;19969;-84
2022/07/16 17:49:55;;;;;;;;;;;;;;;10.40;84.56;100201.56;5085496;28;19942;-85
2022/07/16 17:52:22;;;;;;;;;;;;;;;10.46;83.88;100204.00;5087347;28;19921;-87
2022/07/16 17:54:48;;;;;;;;;;;;;;;10.48;85.79;100208.34;5086601;28;19916;-85
2022/07/16 17:57:13;;;;;;;;;;;;;;;10.29;84.20;100209.84;5079770;28;19928;-84
2022/07/16 17:59:41;;;;;;;;;;;;;;;10.63;86.23;100201.63;5070197;28;19921;-83
2022/07/16 18:02:07;;;;;;;;;;;;;;;10.51;84.33;100207.34;5106917;28;20344;-86
2022/07/16 18:04:38;;;;;;;;;;;;;;;10.65;87.24;100209.50;5071862;28;20030;-83
2022/07/16 18:07:04;;;;;;;;;;;;;;;10.47;85.71;100205.75;5059857;28;20497;-83
2022/07/16 18:09:30;;;;;;;;;;;;;;;10.59;88.42;100209.72;5069716;28;19920;-85
2022/07/16 18:11:55;;;;;;;;;;;;;;;10.47;86.28;100208.41;5068611;28;19927;-84
2022/07/16 18:14:20;;;;;;;;;;;;;;;10.76;88.51;100203.81;5070567;28;20008;-86
2022/07/16 18:16:46;;;;;;;;;;;;;;;10.61;86.84;100214.06;5099874;28;19920;-85
2022/07/16 18:19:11;;;;;;;;;;;;;;;10.89;89.18;100210.38;5069255;28;19955;-82
2022/07/16 18:21:36;;;;;;;;;;;;;;;10.66;87.72;100217.41;5065784;28;19927;-85
2022/07/16 18:24:03;;;;;;;;;;;;;;;10.79;89.00;100212.53;5104483;28;19920;-85
2022/07/16 18:26:28;;;;;;;;;;;;;;;10.64;88.42;100219.25;5071452;28;20018;-86
2022/07/16 18:28:53;;;;;;;;;;;;;;;10.71;88.03;100210.16;5067960;28;20351;-86
2022/07/16 18:31:18;;;;;;;;;;;;;;;10.65;88.41;100213.00;5101049;28;19928;-83
2022/07/16 18:33:44;;;;;;;;;;;;;;;10.53;87.54;100211.69;5069326;28;20289;-85
2022/07/16 18:36:09;;;;;;;;;;;;;;;10.67;89.65;100221.78;5067720;28;20019;-86
2022/07/16 18:38:35;;;;;;;;;;;;;;;10.55;87.54;100216.94;5066585;28;19982;-84
2022/07/16 18:41:02;;;;;;;;;;;;;;;10.72;89.50;100211.88;5065622;28;19927;-85
2022/07/16 18:43:27;;;;;;;;;;;;;;;10.43;87.81;100220.00;5069482;28;19946;-87
2022/07/16 18:45:53;;;;;;;;;;;;;;;10.67;89.92;100221.78;5066587;28;19928;-85
2022/07/16 18:48:18;;;;;;;;;;;;;;;10.66;87.97;100217.41;5080400;28;19926;-87
2022/07/16 18:50:44;;;;;;;;;;;;;;;10.73;89.95;100218.03;5098279;28;20326;-84
2022/07/16 18:53:09;;;;;;;;;;;;;;;10.66;87.89;100225.34;5062829;28;19932;-86
2022/07/16 18:55:34;;;;;;;;;;;;;;;10.60;88.15;100228.22;5071008;28;19924;-83
2022/07/16 18:57:59;;;;;;;;;;;;;;;10.74;88.18;100225.09;5068715;28;20382;-85